Time;durP1;ratioP1;P1;durP2;ratioP2;P2;SDS_P1;SDS_P2;PMS_P1;PMS_P2;Temp;Humidity;BMP_temperature;BMP_pressure;BME280_temperature;BME280_humidity;BME280_pressure;Samples;Min_cycle;Max_cycle;Signal;HPM_P1;HPM_P2
2022/01/04 00:03:16;;;;;;;7.60;3.40;;;;;;;9.42;57.92;98171.80;220882;1277;138162;-63
2022/01/04 00:08:20;;;;;;;7.70;3.40;;;;;;;9.33;58.13;98168.38;221017;1277;139434;-61
2022/01/04 00:13:24;;;;;;;7.30;3.30;;;;;;;9.30;58.30;98158.41;220814;1277;139422;-61
2022/01/04 00:18:27;;;;;;;6.80;2.90;;;;;;;9.24;58.39;98156.10;220670;1277;139265;-60
2022/01/04 00:23:30;;;;;;;7.60;3.30;;;;;;;9.22;58.75;98152.87;220608;1277;138989;-61
2022/01/04 00:28:34;;;;;;;7.20;3.00;;;;;;;9.19;58.87;98148.34;220846;1277;138273;-58
2022/01/04 00:33:37;;;;;;;5.90;3.10;;;;;;;9.11;59.12;98145.93;220684;1277;138882;-57
2022/01/04 00:38:40;;;;;;;7.20;3.00;;;;;;;9.05;59.27;98144.57;221053;1277;139421;-61
2022/01/04 00:43:45;;;;;;;7.40;2.80;;;;;;;8.99;59.68;98140.33;220925;1277;138939;-60
2022/01/04 00:54:11;;;;;;;4.50;2.00;;;;;;;8.91;60.10;98130.16;221224;1277;138931;-61
2022/01/04 00:59:17;;;;;;;4.70;1.90;;;;;;;8.86;60.39;98126.23;221029;1277;138658;-56
2022/01/04 01:04:20;;;;;;;4.90;1.90;;;;;;;8.82;60.62;98120.16;220954;1275;138895;-57
2022/01/04 01:09:27;;;;;;;4.30;1.80;;;;;;;8.81;60.86;98122.02;220540;1278;138837;-56
2022/01/04 01:14:30;;;;;;;5.30;1.60;;;;;;;8.81;61.07;98114.40;220666;1278;139143;-60
2022/01/04 01:19:36;;;;;;;5.40;1.70;;;;;;;8.81;61.19;98106.30;221171;1277;138352;-57
2022/01/04 01:24:39;;;;;;;4.00;1.70;;;;;;;8.79;61.25;98102.54;221118;1277;140068;-59
2022/01/04 01:29:42;;;;;;;3.60;1.80;;;;;;;8.76;61.33;98098.45;221007;1277;139125;-60
2022/01/04 01:34:45;;;;;;;2.60;1.60;;;;;;;8.74;61.61;98095.39;220903;1277;139317;-59
2022/01/04 01:39:48;;;;;;;2.30;1.20;;;;;;;8.74;61.77;98092.90;220977;1277;139400;-57
2022/01/04 01:44:51;;;;;;;2.30;1.50;;;;;;;8.73;61.71;98092.15;220983;1277;139121;-56
2022/01/04 01:49:54;;;;;;;3.50;1.20;;;;;;;8.70;61.94;98100.65;220958;1277;139351;-57
2022/01/04 01:54:59;;;;;;;2.20;1.20;;;;;;;8.65;62.13;98094.14;220933;1277;138469;-62
2022/01/04 02:00:05;;;;;;;6.00;1.10;;;;;;;8.64;62.22;98094.02;220567;1277;139096;-60
2022/01/04 02:05:12;;;;;;;4.20;1.40;;;;;;;8.61;62.56;98092.92;220621;1277;139612;-58
2022/01/04 02:10:15;;;;;;;3.70;1.60;;;;;;;8.57;62.73;98084.59;221052;1277;138934;-57
2022/01/04 02:15:20;;;;;;;3.30;1.40;;;;;;;8.47;63.20;98084.05;220969;1277;138664;-59
2022/01/04 02:20:23;;;;;;;2.10;1.40;;;;;;;8.38;63.54;98083.56;220871;1277;139447;-61
2022/01/04 02:25:26;;;;;;;3.90;1.30;;;;;;;8.28;63.76;98078.39;221033;1277;143095;-60
2022/01/04 02:30:30;;;;;;;1.90;1.00;;;;;;;8.23;64.11;98074.33;220777;1277;140257;-61
2022/01/04 02:35:33;;;;;;;1.20;0.90;;;;;;;8.19;64.39;98073.17;220557;1277;139404;-62
2022/01/04 02:40:36;;;;;;;2.30;1.20;;;;;;;8.11;64.66;98060.98;221065;1277;139418;-61
2022/01/04 02:45:39;;;;;;;1.60;1.00;;;;;;;8.01;64.78;98057.26;220925;1277;139736;-56
2022/01/04 02:50:42;;;;;;;2.40;1.10;;;;;;;7.92;64.95;98052.39;220684;1277;138674;-58
2022/01/04 02:55:45;;;;;;;2.70;0.90;;;;;;;7.89;65.24;98048.22;220492;1277;139138;-57
2022/01/04 03:00:49;;;;;;;1.70;1.00;;;;;;;7.91;65.34;98034.27;221105;1277;138973;-64
2022/01/04 03:05:52;;;;;;;1.60;0.80;;;;;;;7.93;65.52;98020.77;221038;1277;138615;-59
2022/01/04 03:10:55;;;;;;;2.20;1.10;;;;;;;7.89;65.57;98011.45;220917;1277;140175;-60
2022/01/04 03:15:58;;;;;;;2.10;1.20;;;;;;;7.80;65.72;98002.36;221008;1277;138872;-61
2022/01/04 03:21:01;;;;;;;2.30;1.20;;;;;;;7.70;66.03;98000.00;221030;1277;138826;-56
2022/01/04 03:26:04;;;;;;;3.40;1.30;;;;;;;7.64;66.19;97984.15;220802;1277;140525;-58
2022/01/04 03:31:08;;;;;;;2.10;1.20;;;;;;;7.61;66.51;97968.50;221207;1277;138819;-62
2022/01/04 03:36:11;;;;;;;4.30;1.40;;;;;;;7.60;66.63;97954.23;220963;1277;139539;-59
2022/01/04 03:41:19;;;;;;;1.80;1.10;;;;;;;7.55;66.84;97942.96;220865;1277;138926;-58
2022/01/04 03:46:22;;;;;;;2.40;1.20;;;;;;;7.52;66.93;97929.38;220393;1277;139472;-57
2022/01/04 03:51:26;;;;;;;2.90;1.20;;;;;;;7.47;66.95;97925.48;220952;1277;139037;-57
2022/01/04 03:56:29;;;;;;;2.10;1.10;;;;;;;7.44;67.38;97924.63;220911;1277;138596;-59
2022/01/04 04:01:32;;;;;;;3.20;1.30;;;;;;;7.39;67.45;97923.23;220391;1277;138616;-59
2022/01/04 04:06:35;;;;;;;16.60;10.00;;;;;;;7.45;68.23;97919.27;220932;1277;138925;-58
2022/01/04 04:11:38;;;;;;;3.30;1.10;;;;;;;7.72;68.56;97908.23;220981;1277;139775;-60
2022/01/04 04:16:41;;;;;;;2.80;1.10;;;;;;;7.84;68.16;97910.60;220826;1277;139765;-57
2022/01/04 04:21:44;;;;;;;8.60;4.80;;;;;;;7.90;68.10;97911.59;220899;1277;144665;-59
2022/01/04 04:26:47;;;;;;;2.00;1.40;;;;;;;8.01;68.06;97911.88;220904;1277;138742;-60
2022/01/04 04:31:50;;;;;;;2.80;1.20;;;;;;;8.03;67.96;97907.18;220561;1278;138932;-60
2022/01/04 04:36:53;;;;;;;2.90;1.40;;;;;;;8.06;68.00;97903.63;220642;1277;138405;-58
2022/01/04 04:41:57;;;;;;;1.80;1.00;;;;;;;8.08;68.02;97901.55;220914;1277;138669;-59
2022/01/04 04:47:00;;;;;;;210.70;153.10;;;;;;;8.12;68.01;97898.46;220818;1277;139106;-59
2022/01/04 04:52:04;;;;;;;3.60;2.20;;;;;;;8.28;68.53;97894.67;220788;1277;141815;-60
2022/01/04 04:57:07;;;;;;;2.60;1.30;;;;;;;8.42;68.09;97886.62;220810;1277;140145;-60
2022/01/04 05:02:10;;;;;;;3.00;1.40;;;;;;;8.42;67.77;97874.58;221114;1277;139036;-59
2022/01/04 05:07:14;;;;;;;5.90;1.70;;;;;;;8.38;67.83;97866.54;221136;1277;139604;-57
2022/01/04 05:12:17;;;;;;;2.20;1.50;;;;;;;8.39;67.84;97860.34;220889;1277;138699;-59
2022/01/04 05:17:20;;;;;;;2.70;1.50;;;;;;;8.35;67.77;97861.45;221039;1277;140425;-59
2022/01/04 05:22:23;;;;;;;6.00;2.00;;;;;;;8.31;67.97;97861.55;220938;1277;139537;-58
2022/01/04 05:27:26;;;;;;;2.80;1.60;;;;;;;8.33;67.98;97856.60;220952;1277;138828;-59
2022/01/04 05:32:29;;;;;;;3.60;1.50;;;;;;;8.37;67.94;97856.23;220875;1277;139914;-58
2022/01/04 05:37:32;;;;;;;4.30;1.60;;;;;;;8.37;67.95;97839.58;221069;1277;139440;-58
2022/01/04 05:42:35;;;;;;;7.30;1.90;;;;;;;8.42;68.09;97836.23;221068;1277;139519;-58
2022/01/04 05:47:38;;;;;;;5.80;1.90;;;;;;;8.46;68.20;97828.70;220968;1277;139086;-59
2022/01/04 05:52:41;;;;;;;3.90;2.10;;;;;;;8.46;68.11;97824.27;221018;1277;139430;-61
2022/01/04 05:57:44;;;;;;;3.60;2.30;;;;;;;8.44;67.98;97815.73;220948;1277;138730;-58
2022/01/04 06:02:47;;;;;;;3.40;2.00;;;;;;;8.44;68.09;97808.33;220984;1277;139128;-59
2022/01/04 06:07:51;;;;;;;7.00;2.00;;;;;;;8.43;68.17;97805.55;220970;1277;139356;-59
2022/01/04 06:17:57;;;;;;;4.00;2.10;;;;;;;8.51;68.13;97804.10;221116;1277;139762;-59
2022/01/04 06:23:00;;;;;;;4.10;2.00;;;;;;;8.52;68.22;97806.34;220535;1278;139007;-61
2022/01/04 06:28:04;;;;;;;6.60;2.30;;;;;;;8.50;68.01;97799.79;220617;1277;139134;-60
2022/01/04 06:33:07;;;;;;;5.80;2.40;;;;;;;8.43;67.82;97791.79;220892;1277;138922;-61
2022/01/04 06:38:10;;;;;;;6.70;2.30;;;;;;;8.37;67.88;97793.83;220990;1277;142177;-59
2022/01/04 06:43:13;;;;;;;6.10;2.30;;;;;;;8.27;68.19;97791.15;221085;1277;138616;-59
2022/01/04 06:48:16;;;;;;;3.80;2.20;;;;;;;8.28;68.21;97782.27;220966;1277;139140;-60
2022/01/04 06:53:19;;;;;;;4.80;2.70;;;;;;;8.35;68.45;97777.86;221021;1277;140206;-60
2022/01/04 06:58:22;;;;;;;4.70;3.10;;;;;;;8.42;68.46;97772.57;221086;1277;139456;-59
2022/01/04 07:03:25;;;;;;;5.40;2.60;;;;;;;8.45;68.53;97766.36;220854;1277;138578;-59
2022/01/04 07:08:29;;;;;;;4.10;2.40;;;;;;;8.46;68.56;97757.07;221022;1277;138738;-59
2022/01/04 07:13:32;;;;;;;4.00;2.60;;;;;;;8.47;68.51;97761.61;220975;1277;138832;-58
2022/01/04 07:18:35;;;;;;;3.80;2.20;;;;;;;8.49;68.77;97759.34;221130;1277;138676;-59
2022/01/04 07:23:38;;;;;;;4.40;2.00;;;;;;;8.48;68.69;97751.98;220650;1277;140962;-56
2022/01/04 07:28:43;;;;;;;4.80;2.00;;;;;;;8.52;68.67;97752.42;220438;1279;139848;-56
2022/01/04 07:33:46;;;;;;;3.80;2.00;;;;;;;8.56;68.64;97746.30;220896;1277;139783;-58
2022/01/04 07:38:49;;;;;;;6.20;2.40;;;;;;;8.60;68.89;97729.70;221063;1277;138612;-57
2022/01/04 07:43:53;;;;;;;4.50;2.30;;;;;;;8.65;68.82;97715.91;220776;1277;138750;-59
2022/01/04 07:48:56;;;;;;;6.00;2.30;;;;;;;8.69;68.76;97701.12;221235;1277;141750;-57
2022/01/04 07:53:59;;;;;;;4.30;2.30;;;;;;;8.69;68.65;97696.54;220886;1277;139152;-57
2022/01/04 07:59:03;;;;;;;3.60;2.10;;;;;;;8.72;68.75;97689.20;221016;1279;138368;-56
2022/01/04 08:04:06;;;;;;;3.20;1.90;;;;;;;8.79;68.75;97687.84;221047;1277;139514;-57
2022/01/04 08:09:09;;;;;;;3.60;1.80;;;;;;;8.89;68.76;97686.89;220915;1277;138931;-55
2022/01/04 08:14:13;;;;;;;3.60;2.00;;;;;;;9.04;68.65;97675.29;220638;1277;139120;-60
2022/01/04 08:19:16;;;;;;;4.20;1.90;;;;;;;9.14;68.73;97675.14;220657;1279;139499;-58
2022/01/04 08:24:19;;;;;;;4.90;1.80;;;;;;;9.22;68.33;97658.45;220729;1277;139375;-58
2022/01/04 08:29:24;;;;;;;3.80;1.80;;;;;;;9.29;68.08;97643.44;221003;1276;139280;-59
2022/01/04 08:34:29;;;;;;;4.40;2.00;;;;;;;9.35;68.11;97634.76;220834;1277;139157;-56
2022/01/04 08:39:32;;;;;;;3.40;1.90;;;;;;;9.41;68.12;97630.95;220393;1279;139111;-57
2022/01/04 08:44:39;;;;;;;2.30;1.40;;;;;;;9.50;68.08;97626.48;221062;1277;140403;-58
2022/01/04 08:49:42;;;;;;;1.80;1.30;;;;;;;9.61;67.86;97616.00;220968;1277;139674;-60
2022/01/04 08:54:46;;;;;;;3.20;1.40;;;;;;;9.75;67.90;97597.24;221030;1277;138670;-57
2022/01/04 08:59:49;;;;;;;4.00;1.70;;;;;;;9.85;67.71;97586.77;221051;1277;138529;-58
2022/01/04 09:04:53;;;;;;;4.30;1.90;;;;;;;9.91;67.32;97585.56;220759;1277;139938;-58
2022/01/04 09:09:56;;;;;;;3.60;2.00;;;;;;;9.96;67.31;97571.18;220641;1279;141265;-59
2022/01/04 09:15:27;;;;;;;4.80;2.00;;;;;;;9.97;67.12;97563.34;220955;1277;139321;-57
2022/01/04 09:20:28;;;;;;;5.00;2.40;;;;;;;9.99;67.12;97549.66;220988;1277;138580;-58
2022/01/04 09:25:31;;;;;;;5.00;2.50;;;;;;;10.01;66.96;97535.35;220993;1277;139498;-58
2022/01/04 09:30:34;;;;;;;3.40;1.70;;;;;;;9.95;66.55;97524.70;221089;1277;138566;-59
2022/01/04 09:35:38;;;;;;;3.60;2.00;;;;;;;9.92;66.35;97508.94;220840;1277;139737;-59
2022/01/04 09:40:41;;;;;;;4.00;1.90;;;;;;;9.94;66.33;97495.38;220874;1277;141239;-59
2022/01/04 09:45:44;;;;;;;80.30;50.60;;;;;;;9.94;66.13;97480.44;220833;1277;138563;-60
2022/01/04 09:50:51;;;;;;;12.80;7.20;;;;;;;10.06;67.05;97472.25;220860;1277;139175;-58
2022/01/04 09:55:56;;;;;;;4.10;2.40;;;;;;;10.15;66.43;97455.66;220833;1277;140285;-58
2022/01/04 10:00:59;;;;;;;5.00;2.10;;;;;;;10.15;66.24;97449.23;221086;1277;140282;-58
2022/01/04 10:06:14;;;;;;;4.10;2.10;;;;;;;10.11;65.85;97436.35;220906;1277;152179;-58
2022/01/04 10:11:29;;;;;;;5.30;2.30;;;;;;;10.11;65.87;97421.27;220977;1277;139568;-62
2022/01/04 10:16:32;;;;;;;3.20;2.10;;;;;;;10.15;65.91;97418.63;220721;1277;139137;-62
2022/01/04 10:21:35;;;;;;;4.60;2.30;;;;;;;10.16;65.85;97418.48;220974;1277;139186;-62
2022/01/04 10:26:40;;;;;;;6.80;2.70;;;;;;;10.15;65.69;97415.27;220857;1277;139161;-59
2022/01/04 10:31:43;;;;;;;4.40;2.60;;;;;;;10.11;65.73;97412.39;220920;1277;139801;-61
2022/01/04 10:36:46;;;;;;;5.80;3.10;;;;;;;10.16;65.38;97401.67;221008;1277;140233;-58
2022/01/04 10:42:05;;;;;;;98.80;71.20;;;;;;;10.26;65.89;97393.08;220745;1277;139530;-58
2022/01/04 10:47:08;;;;;;;8.60;5.10;;;;;;;10.42;66.30;97386.51;220595;1278;139480;-60
2022/01/04 10:52:16;;;;;;;7.10;4.10;;;;;;;10.52;65.84;97382.41;220535;1277;141598;-56
2022/01/04 10:57:21;;;;;;;6.20;3.30;;;;;;;10.55;65.87;97371.01;220868;1277;139157;-57
2022/01/04 11:02:33;;;;;;;10.00;3.90;;;;;;;10.59;65.73;97358.93;220859;1277;139097;-56
2022/01/04 11:07:57;;;;;;;7.90;3.30;;;;;;;10.59;65.61;97352.75;220998;1277;140184;-59
2022/01/04 11:13:00;;;;;;;180.50;110.50;;;;;;;10.54;65.34;97346.84;220996;1277;138715;-58
2022/01/04 11:18:03;;;;;;;21.60;12.50;;;;;;;10.56;65.77;97339.91;220859;1277;140843;-56
2022/01/04 11:23:07;;;;;;;10.30;5.10;;;;;;;10.55;65.51;97336.09;221004;1277;139274;-56
2022/01/04 11:28:15;;;;;;;6.80;2.90;;;;;;;10.47;65.48;97328.99;220905;1277;139559;-56
2022/01/04 11:33:29;;;;;;;7.60;2.80;;;;;;;10.47;65.74;97317.46;220833;1277;140087;-58
2022/01/04 11:38:36;;;;;;;9.90;3.50;;;;;;;10.53;65.92;97308.45;220579;1277;138988;-55
2022/01/04 11:43:40;;;;;;;6.30;3.00;;;;;;;10.57;65.96;97296.02;221054;1277;139752;-58
2022/01/04 11:48:44;;;;;;;6.90;3.60;;;;;;;10.61;65.82;97287.69;220759;1277;138817;-56
2022/01/04 11:54:15;;;;;;;7.70;3.30;;;;;;;10.66;66.42;97268.90;221196;1277;138726;-57
2022/01/04 11:59:43;;;;;;;4.40;2.90;;;;;;;10.63;65.98;97261.23;221047;1277;138905;-58
2022/01/04 12:04:49;;;;;;;5.30;2.80;;;;;;;10.57;66.46;97251.14;220482;1277;139260;-59
2022/01/04 12:10:18;;;;;;;5.20;2.80;;;;;;;10.51;66.39;97243.50;221160;1277;140104;-56
2022/01/04 12:15:33;;;;;;;7.20;2.90;;;;;;;10.49;66.77;97239.44;221248;1277;139320;-58
2022/01/04 12:20:42;;;;;;;6.30;2.80;;;;;;;10.53;67.00;97228.48;221150;1277;141604;-58
2022/01/04 12:26:04;;;;;;;4.80;2.70;;;;;;;10.58;67.11;97219.77;221114;1277;139100;-56
2022/01/04 12:31:24;;;;;;;4.30;2.30;;;;;;;10.62;67.22;97206.81;220945;1277;138932;-57
2022/01/04 12:36:38;;;;;;;3.10;2.10;;;;;;;10.65;67.14;97192.79;220681;1278;139034;-59
2022/01/04 12:41:43;;;;;;;5.70;2.50;;;;;;;10.69;67.58;97186.59;221022;1277;138627;-59
2022/01/04 12:46:47;;;;;;;4.50;2.50;;;;;;;10.70;67.28;97177.63;221000;1277;139287;-56
2022/01/04 12:51:54;;;;;;;3.90;2.50;;;;;;;10.75;67.40;97171.10;220491;1277;138670;-58
2022/01/04 12:57:03;;;;;;;4.40;2.50;;;;;;;10.79;67.57;97151.41;221058;1277;139266;-59
2022/01/04 13:02:12;;;;;;;4.10;2.30;;;;;;;10.86;67.38;97139.74;221175;1277;140293;-58
2022/01/04 13:07:24;;;;;;;5.50;2.30;;;;;;;10.95;67.28;97129.47;220944;1276;140127;-56
2022/01/04 13:12:33;;;;;;;4.00;2.00;;;;;;;11.03;67.52;97124.25;221116;1277;138431;-56
2022/01/04 13:17:42;;;;;;;3.80;1.80;;;;;;;11.10;67.26;97113.46;221279;1277;139790;-57
2022/01/04 13:22:46;;;;;;;3.10;1.90;;;;;;;11.19;67.29;97104.16;220915;1277;139242;-57
2022/01/04 13:27:49;;;;;;;3.00;1.90;;;;;;;11.24;66.71;97097.50;221084;1277;138543;-60
2022/01/04 13:32:55;;;;;;;3.10;2.00;;;;;;;11.23;66.27;97090.05;221062;1276;138846;-57
2022/01/04 13:38:02;;;;;;;4.50;1.80;;;;;;;11.25;66.67;97082.25;221130;1276;140390;-60
2022/01/04 13:43:19;;;;;;;3.50;2.20;;;;;;;11.27;66.41;97066.64;221198;1277;139069;-58
2022/01/04 13:48:28;;;;;;;3.60;1.90;;;;;;;11.29;66.54;97052.77;221024;1277;139256;-60
2022/01/04 13:53:40;;;;;;;3.10;1.80;;;;;;;11.34;66.19;97042.34;220930;1277;139224;-56
2022/01/04 13:58:45;;;;;;;2.60;1.60;;;;;;;11.41;66.26;97035.77;221081;1277;139777;-60
2022/01/04 14:04:26;;;;;;;4.20;2.10;;;;;;;11.49;66.28;97026.98;221138;1277;138869;-58
2022/01/04 14:09:35;;;;;;;3.50;2.00;;;;;;;11.52;65.50;97016.61;221257;1277;138789;-58
2022/01/04 14:14:54;;;;;;;3.70;1.80;;;;;;;11.53;65.36;97004.21;221133;1277;139660;-59
2022/01/04 14:20:09;;;;;;;3.80;2.00;;;;;;;11.55;65.50;96998.15;220918;1277;138914;-59
2022/01/04 14:25:14;;;;;;;5.60;2.30;;;;;;;11.59;65.19;96989.98;220704;1279;139514;-58
2022/01/04 14:30:25;;;;;;;4.70;1.90;;;;;;;11.61;65.21;96985.34;220776;1277;141439;-59
2022/01/04 14:35:31;;;;;;;2.60;1.90;;;;;;;11.59;65.02;96962.06;221127;1277;138566;-58
2022/01/04 14:40:35;;;;;;;4.60;2.70;;;;;;;11.57;64.96;96956.41;220911;1275;139911;-57
2022/01/04 14:45:39;;;;;;;5.30;3.00;;;;;;;11.53;64.76;96949.16;221166;1277;139084;-60
2022/01/04 14:50:42;;;;;;;7.10;3.50;;;;;;;11.51;65.11;96935.00;221177;1275;138733;-59
2022/01/04 14:55:45;;;;;;;7.70;3.50;;;;;;;11.50;64.94;96931.73;220964;1277;141042;-58
2022/01/04 15:01:03;;;;;;;9.40;4.10;;;;;;;11.57;65.26;96930.17;221051;1277;139978;-56
2022/01/04 15:06:08;;;;;;;8.80;5.30;;;;;;;11.62;65.13;96923.75;221021;1277;140283;-60
2022/01/04 15:11:11;;;;;;;9.40;5.40;;;;;;;11.65;65.70;96925.11;221054;1276;138502;-59
2022/01/04 15:16:14;;;;;;;10.60;6.30;;;;;;;11.63;65.29;96920.89;220630;1277;138611;-59
2022/01/04 15:21:19;;;;;;;10.50;5.50;;;;;;;11.64;65.53;96908.33;220703;1277;138900;-57
2022/01/04 15:26:37;;;;;;;9.30;6.20;;;;;;;11.58;64.84;96903.58;220937;1277;138973;-59
2022/01/04 15:31:40;;;;;;;10.20;6.30;;;;;;;11.50;65.03;96894.55;220992;1277;138809;-57
2022/01/04 15:36:45;;;;;;;11.90;7.10;;;;;;;11.45;65.33;96890.01;221170;1277;139880;-58
2022/01/04 15:41:52;;;;;;;12.00;7.10;;;;;;;11.37;65.25;96884.05;221150;1277;139888;-58
2022/01/04 15:46:56;;;;;;;14.80;8.80;;;;;;;11.28;65.15;96878.38;220873;1277;139010;-60
2022/01/04 15:51:59;;;;;;;14.00;8.10;;;;;;;11.22;65.37;96876.10;220923;1277;140968;-57
2022/01/04 15:57:03;;;;;;;13.60;7.90;;;;;;;11.20;65.22;96866.55;221100;1277;141704;-61
2022/01/04 16:02:06;;;;;;;17.20;9.10;;;;;;;11.22;65.36;96857.87;221056;1276;139781;-59
2022/01/04 16:07:10;;;;;;;15.50;8.70;;;;;;;11.26;65.84;96847.16;221263;1277;139436;-58
2022/01/04 16:12:13;;;;;;;17.30;8.00;;;;;;;11.26;65.34;96841.86;220707;1277;140084;-60
2022/01/04 16:22:35;;;;;;;23.40;14.70;;;;;;;11.17;65.25;96844.14;220861;1277;140630;-61
2022/01/04 16:27:38;;;;;;;12.00;7.00;;;;;;;11.22;65.23;96841.20;221097;1277;139769;-61
2022/01/04 16:32:42;;;;;;;11.70;6.20;;;;;;;11.22;65.11;96832.70;221049;1277;138685;-60
2022/01/04 16:37:45;;;;;;;12.50;7.10;;;;;;;11.22;65.12;96818.77;221110;1277;138904;-59
2022/01/04 16:42:48;;;;;;;12.20;6.40;;;;;;;11.20;65.20;96816.30;221084;1277;139429;-59
2022/01/04 16:47:52;;;;;;;9.30;5.90;;;;;;;11.18;64.93;96822.25;220950;1277;139467;-59
2022/01/04 16:52:55;;;;;;;9.90;5.60;;;;;;;11.13;64.70;96821.08;220824;1277;142567;-60
2022/01/04 16:57:59;;;;;;;9.60;4.90;;;;;;;11.12;64.57;96806.79;220994;1277;140212;-62
2022/01/04 17:03:03;;;;;;;7.80;4.10;;;;;;;11.15;64.85;96803.16;221165;1277;139633;-59
2022/01/04 17:08:06;;;;;;;6.90;4.00;;;;;;;11.18;64.54;96808.24;221103;1277;139645;-61
2022/01/04 17:18:31;;;;;;;6.10;3.60;;;;;;;11.24;64.42;96796.57;221186;1277;138800;-62
2022/01/04 17:23:35;;;;;;;7.40;3.90;;;;;;;11.23;64.26;96782.66;221060;1277;138685;-63
2022/01/04 17:28:38;;;;;;;6.00;3.90;;;;;;;11.24;64.55;96776.81;221052;1277;140100;-58
2022/01/04 17:33:41;;;;;;;7.30;3.70;;;;;;;11.26;64.27;96782.14;220941;1277;139514;-60
2022/01/04 17:38:44;;;;;;;6.10;3.90;;;;;;;11.26;64.12;96775.93;221036;1277;141412;-59
2022/01/04 17:43:47;;;;;;;5.50;3.50;;;;;;;11.27;64.49;96775.16;220954;1277;139011;-61
2022/01/04 17:48:51;;;;;;;5.40;3.30;;;;;;;11.30;64.05;96778.08;220448;1277;139266;-60
2022/01/04 17:53:54;;;;;;;8.60;3.40;;;;;;;11.38;64.55;96778.10;220991;1276;140355;-59
2022/01/04 17:59:00;;;;;;;6.10;3.20;;;;;;;11.45;64.23;96770.34;221399;1276;139120;-60
2022/01/04 18:04:04;;;;;;;5.70;2.80;;;;;;;11.49;64.45;96771.82;220991;1277;142516;-60
2022/01/04 18:09:07;;;;;;;35.90;22.70;;;;;;;11.57;64.97;96774.07;220966;1275;138804;-60
2022/01/04 18:14:11;;;;;;;7.90;4.20;;;;;;;11.69;64.90;96769.08;220978;1277;140900;-59
2022/01/04 18:19:14;;;;;;;4.30;2.60;;;;;;;11.73;64.81;96753.04;220625;1270;139634;-57
2022/01/04 18:24:17;;;;;;;5.00;2.50;;;;;;;11.74;64.75;96749.69;219710;1281;139593;-60
2022/01/04 18:29:20;;;;;;;3.90;2.70;;;;;;;11.75;64.58;96740.20;219586;1282;139224;-58
2022/01/04 18:34:23;;;;;;;6.80;2.60;;;;;;;11.72;64.60;96732.50;219452;1283;139547;-60
2022/01/04 18:39:27;;;;;;;4.30;2.60;;;;;;;11.74;64.76;96731.25;219470;1282;139340;-58
2022/01/04 18:44:30;;;;;;;3.30;2.30;;;;;;;11.73;64.57;96737.39;219567;1282;139116;-58
2022/01/04 18:49:34;;;;;;;8.50;5.00;;;;;;;11.77;64.91;96724.19;219696;1282;139619;-59
2022/01/04 18:54:38;;;;;;;3.50;2.40;;;;;;;11.94;64.82;96717.65;219508;1282;140477;-62
2022/01/04 18:59:41;;;;;;;3.20;1.70;;;;;;;11.95;64.65;96719.72;219795;1281;139098;-61
2022/01/04 19:04:44;;;;;;;2.90;1.80;;;;;;;11.92;64.69;96712.42;219980;1281;138581;-59
2022/01/04 19:09:47;;;;;;;3.20;1.80;;;;;;;11.86;64.32;96713.36;219999;1282;139006;-61
2022/01/04 19:14:50;;;;;;;2.50;1.90;;;;;;;11.85;64.56;96714.55;219960;1281;139169;-60
2022/01/04 19:19:53;;;;;;;3.60;2.00;;;;;;;11.86;64.19;96713.36;219733;1282;139664;-59
2022/01/04 19:24:56;;;;;;;4.00;1.80;;;;;;;11.84;63.95;96712.58;219691;1283;138834;-57
2022/01/04 19:29:59;;;;;;;2.70;2.00;;;;;;;11.88;64.19;96721.48;219570;1282;139451;-59
2022/01/04 19:40:25;;;;;;;24.40;9.30;;;;;;;12.09;64.50;96722.88;219601;1283;140378;-59
2022/01/04 19:45:28;;;;;;;6.70;3.30;;;;;;;12.13;64.02;96719.23;219441;1284;139153;-59
2022/01/04 19:50:33;;;;;;;3.20;2.30;;;;;;;12.11;64.06;96707.31;219712;1283;139329;-58
2022/01/04 19:55:36;;;;;;;3.20;1.90;;;;;;;12.09;64.10;96708.61;219828;1284;139459;-59
2022/01/04 20:00:39;;;;;;;2.80;1.90;;;;;;;12.13;63.91;96719.42;219587;1283;140146;-60
2022/01/04 20:05:42;;;;;;;3.50;1.90;;;;;;;12.16;64.17;96717.99;219538;1283;141577;-64
2022/01/04 20:10:47;;;;;;;3.60;2.10;;;;;;;12.19;63.67;96715.04;219842;1282;139065;-57
2022/01/04 20:15:53;;;;;;;4.50;2.00;;;;;;;12.20;63.75;96710.11;219770;1283;138791;-58
2022/01/04 20:20:57;;;;;;;3.40;2.30;;;;;;;12.22;63.79;96697.48;219721;1282;139606;-56
2022/01/04 20:26:00;;;;;;;3.50;1.80;;;;;;;12.24;64.12;96691.25;219714;1284;139484;-58
2022/01/04 20:31:05;;;;;;;3.00;2.00;;;;;;;12.23;63.67;96684.71;219884;1282;139028;-60
2022/01/04 20:36:08;;;;;;;2.70;2.10;;;;;;;12.20;63.61;96684.35;219691;1284;139060;-57
2022/01/04 20:41:12;;;;;;;4.60;1.90;;;;;;;12.22;63.63;96682.74;219662;1283;139778;-58
2022/01/04 20:46:15;;;;;;;4.10;2.50;;;;;;;12.24;63.62;96691.89;219533;1284;139056;-59
2022/01/04 20:51:18;;;;;;;5.40;2.20;;;;;;;12.24;63.55;96691.85;219648;1284;138615;-57
2022/01/04 20:56:21;;;;;;;3.00;2.10;;;;;;;12.24;63.79;96689.65;219722;1283;138451;-59
2022/01/04 21:01:26;;;;;;;5.70;2.20;;;;;;;12.27;63.57;96698.34;219854;1284;139549;-57
2022/01/04 21:06:30;;;;;;;3.90;2.50;;;;;;;12.28;63.47;96699.10;219695;1282;138961;-59
2022/01/04 21:11:33;;;;;;;16.40;9.50;;;;;;;12.33;63.78;96707.38;219594;1283;139859;-55
2022/01/04 21:16:37;;;;;;;5.40;2.70;;;;;;;12.39;63.78;96708.96;219717;1284;139225;-57
2022/01/04 21:21:40;;;;;;;3.90;2.20;;;;;;;12.54;63.60;96732.23;219688;1284;139361;-59
2022/01/04 21:26:43;;;;;;;3.70;2.10;;;;;;;12.57;63.17;96736.02;219680;1283;139424;-60
2022/01/04 21:31:46;;;;;;;3.30;1.90;;;;;;;12.60;63.34;96740.70;219554;1283;139057;-58
2022/01/04 21:36:49;;;;;;;5.50;2.30;;;;;;;12.60;63.07;96743.86;219771;1284;138808;-58
2022/01/04 21:41:53;;;;;;;3.90;2.10;;;;;;;12.64;63.04;96761.86;219567;1284;138590;-58
2022/01/04 21:46:57;;;;;;;4.60;2.20;;;;;;;12.65;62.83;96756.75;219595;1284;139481;-57
2022/01/04 21:51:59;;;;;;;3.60;2.00;;;;;;;12.64;63.19;96752.52;219672;1284;140208;-56
2022/01/04 21:57:03;;;;;;;2.30;1.60;;;;;;;12.63;63.11;96758.38;219659;1282;139131;-57
2022/01/04 22:02:07;;;;;;;2.80;1.90;;;;;;;12.59;63.22;96766.58;219734;1284;138953;-56
2022/01/04 22:07:10;;;;;;;3.90;2.50;;;;;;;12.58;63.17;96776.16;219801;1284;139826;-56
2022/01/04 22:12:14;;;;;;;5.60;2.10;;;;;;;12.56;63.29;96787.34;219675;1283;145004;-57
2022/01/04 22:17:17;;;;;;;4.30;2.70;;;;;;;12.55;63.41;96803.65;219688;1284;139017;-57
2022/01/04 22:22:20;;;;;;;5.50;2.70;;;;;;;12.51;63.25;96822.73;219731;1283;138813;-60
2022/01/04 22:27:23;;;;;;;4.20;2.60;;;;;;;12.48;63.34;96838.92;219739;1284;139238;-57
2022/01/04 22:32:27;;;;;;;4.50;2.90;;;;;;;12.47;63.31;96864.56;219586;1284;138592;-58
2022/01/04 22:37:31;;;;;;;7.30;3.70;;;;;;;12.43;63.72;96895.42;219723;1284;139165;-56
2022/01/04 22:42:34;;;;;;;4.10;2.80;;;;;;;12.34;63.47;96926.08;219545;1284;139454;-58
2022/01/04 22:47:37;;;;;;;4.70;2.50;;;;;;;12.11;63.72;96941.61;219389;1284;138930;-57
2022/01/04 22:52:41;;;;;;;4.80;2.50;;;;;;;11.85;63.62;96939.25;219625;1284;139237;-56
2022/01/04 22:57:44;;;;;;;4.30;1.90;;;;;;;11.52;64.03;96960.61;219627;1284;138933;-57
2022/01/04 23:02:50;;;;;;;3.50;2.30;;;;;;;11.15;64.07;96978.83;219557;1283;140865;-58
2022/01/04 23:07:55;;;;;;;3.70;2.00;;;;;;;10.95;65.26;96985.44;219674;1284;139384;-57
2022/01/04 23:12:59;;;;;;;2.80;2.20;;;;;;;10.83;65.23;96996.14;219705;1283;139333;-59
2022/01/04 23:18:02;;;;;;;4.20;2.50;;;;;;;10.70;65.76;97001.27;219589;1284;139182;-59
2022/01/04 23:23:05;;;;;;;4.80;2.50;;;;;;;10.59;66.05;96998.80;219589;1284;139152;-59
2022/01/04 23:28:09;;;;;;;4.90;3.10;;;;;;;10.58;66.20;97014.82;219461;1284;140245;-60
2022/01/04 23:33:12;;;;;;;4.10;2.70;;;;;;;10.54;66.12;97036.34;219277;1284;139901;-61
2022/01/04 23:38:15;;;;;;;6.70;3.50;;;;;;;10.48;66.63;97045.38;219424;1284;139346;-57
2022/01/04 23:43:19;;;;;;;4.40;2.90;;;;;;;10.45;66.90;97045.38;219625;1284;139541;-59
2022/01/04 23:48:23;;;;;;;4.50;1.80;;;;;;;10.37;66.56;97056.21;219581;1284;140900;-59
2022/01/04 23:53:26;;;;;;;2.60;1.80;;;;;;;10.25;66.54;97062.64;219551;1284;140672;-58